sensor_id;sensor_type;location;lat;lon;timestamp;temperature;humidity
69204;DHT22;56317;27.658;85.326;2023-09-18T00:00:26;20.50;99.90
69204;DHT22;56317;27.658;85.326;2023-09-18T00:02:53;20.40;99.90
69204;DHT22;56317;27.658;85.326;2023-09-18T00:05:20;20.40;99.90
69204;DHT22;56317;27.658;85.326;2023-09-18T00:07:47;20.40;99.90
69204;DHT22;56317;27.658;85.326;2023-09-18T00:10:14;20.40;99.90
69204;DHT22;56317;27.658;85.326;2023-09-18T00:12:41;20.40;99.90
69204;DHT22;56317;27.658;85.326;2023-09-18T00:15:08;20.30;99.90
69204;DHT22;56317;27.658;85.326;2023-09-18T00:17:36;20.30;99.90
69204;DHT22;56317;27.658;85.326;2023-09-18T00:20:04;20.30;99.90
69204;DHT22;56317;27.658;85.326;2023-09-18T00:22:33;20.40;99.90
69204;DHT22;56317;27.658;85.326;2023-09-18T00:25:00;20.40;99.90
69204;DHT22;56317;27.658;85.326;2023-09-18T00:27:30;20.40;99.90
69204;DHT22;56317;27.658;85.326;2023-09-18T00:29:59;20.40;99.90
69204;DHT22;56317;27.658;85.326;2023-09-18T00:32:26;20.50;99.90
69204;DHT22;56317;27.658;85.326;2023-09-18T00:34:54;20.50;99.90
69204;DHT22;56317;27.658;85.326;2023-09-18T00:37:21;20.50;99.90
69204;DHT22;56317;27.658;85.326;2023-09-18T00:39:50;20.60;99.90
69204;DHT22;56317;27.658;85.326;2023-09-18T00:42:17;20.60;99.90
69204;DHT22;56317;27.658;85.326;2023-09-18T00:44:45;20.60;99.90
69204;DHT22;56317;27.658;85.326;2023-09-18T00:47:13;20.70;99.90
69204;DHT22;56317;27.658;85.326;2023-09-18T00:49:43;20.70;99.90
69204;DHT22;56317;27.658;85.326;2023-09-18T00:52:12;20.80;99.90
69204;DHT22;56317;27.658;85.326;2023-09-18T00:54:40;20.80;99.90
69204;DHT22;56317;27.658;85.326;2023-09-18T00:57:09;20.90;99.90
69204;DHT22;56317;27.658;85.326;2023-09-18T00:59:37;21.00;99.90
69204;DHT22;56317;27.658;85.326;2023-09-18T01:02:05;21.00;99.90
69204;DHT22;56317;27.658;85.326;2023-09-18T01:04:33;21.10;99.90
69204;DHT22;56317;27.658;85.326;2023-09-18T01:07:01;21.10;99.90
69204;DHT22;56317;27.658;85.326;2023-09-18T01:09:31;21.20;99.90
69204;DHT22;56317;27.658;85.326;2023-09-18T01:12:05;21.30;99.90
69204;DHT22;56317;27.658;85.326;2023-09-18T01:14:39;21.30;99.90
69204;DHT22;56317;27.658;85.326;2023-09-18T01:17:10;21.40;99.90
69204;DHT22;56317;27.658;85.326;2023-09-18T01:19:44;21.50;99.90
69204;DHT22;56317;27.658;85.326;2023-09-18T01:22:19;21.60;99.90
69204;DHT22;56317;27.658;85.326;2023-09-18T01:24:48;21.60;99.90
69204;DHT22;56317;27.658;85.326;2023-09-18T01:27:17;21.70;99.90
69204;DHT22;56317;27.658;85.326;2023-09-18T01:29:47;21.90;99.90
69204;DHT22;56317;27.658;85.326;2023-09-18T01:32:15;21.90;99.90
69204;DHT22;56317;27.658;85.326;2023-09-18T01:34:52;22.10;99.90
69204;DHT22;56317;27.658;85.326;2023-09-18T01:37:25;22.10;99.90
69204;DHT22;56317;27.658;85.326;2023-09-18T01:39:53;22.20;99.90
69204;DHT22;56317;27.658;85.326;2023-09-18T01:42:20;22.20;99.90
69204;DHT22;56317;27.658;85.326;2023-09-18T01:44:48;22.30;99.90
69204;DHT22;56317;27.658;85.326;2023-09-18T01:47:20;22.40;99.90
69204;DHT22;56317;27.658;85.326;2023-09-18T01:49:49;22.40;99.90
69204;DHT22;56317;27.658;85.326;2023-09-18T01:52:17;22.50;99.90
69204;DHT22;56317;27.658;85.326;2023-09-18T01:54:44;22.50;99.90
69204;DHT22;56317;27.658;85.326;2023-09-18T01:57:11;22.70;99.90
69204;DHT22;56317;27.658;85.326;2023-09-18T01:59:39;22.80;99.90
69204;DHT22;56317;27.658;85.326;2023-09-18T02:02:08;22.80;99.90
69204;DHT22;56317;27.658;85.326;2023-09-18T02:04:36;23.00;99.90
69204;DHT22;56317;27.658;85.326;2023-09-18T02:07:03;23.00;99.90
69204;DHT22;56317;27.658;85.326;2023-09-18T02:09:30;23.20;99.90
69204;DHT22;56317;27.658;85.326;2023-09-18T02:11:57;23.30;99.90
69204;DHT22;56317;27.658;85.326;2023-09-18T02:14:24;23.40;99.90
69204;DHT22;56317;27.658;85.326;2023-09-18T02:16:52;23.60;99.90
69204;DHT22;56317;27.658;85.326;2023-09-18T02:19:20;23.70;99.90
69204;DHT22;56317;27.658;85.326;2023-09-18T02:21:47;23.90;99.90
69204;DHT22;56317;27.658;85.326;2023-09-18T02:24:14;24.00;99.90
69204;DHT22;56317;27.658;85.326;2023-09-18T02:26:41;24.20;99.90
69204;DHT22;56317;27.658;85.326;2023-09-18T02:29:09;24.40;99.90
69204;DHT22;56317;27.658;85.326;2023-09-18T02:31:41;24.40;99.90
69204;DHT22;56317;27.658;85.326;2023-09-18T02:34:08;24.30;99.90
69204;DHT22;56317;27.658;85.326;2023-09-18T02:36:35;24.30;99.90
69204;DHT22;56317;27.658;85.326;2023-09-18T02:39:03;24.40;99.90
69204;DHT22;56317;27.658;85.326;2023-09-18T02:41:30;24.50;99.90
69204;DHT22;56317;27.658;85.326;2023-09-18T02:43:57;24.70;99.90
69204;DHT22;56317;27.658;85.326;2023-09-18T02:46:24;24.90;99.90
69204;DHT22;56317;27.658;85.326;2023-09-18T02:48:51;25.20;99.90
69204;DHT22;56317;27.658;85.326;2023-09-18T02:51:18;25.60;99.90
69204;DHT22;56317;27.658;85.326;2023-09-18T02:53:45;25.80;99.90
69204;DHT22;56317;27.658;85.326;2023-09-18T02:56:16;25.90;99.90
69204;DHT22;56317;27.658;85.326;2023-09-18T02:58:43;25.90;99.90
69204;DHT22;56317;27.658;85.326;2023-09-18T03:01:10;25.80;99.90
69204;DHT22;56317;27.658;85.326;2023-09-18T03:03:37;25.80;99.90
69204;DHT22;56317;27.658;85.326;2023-09-18T03:06:05;25.90;99.90
69204;DHT22;56317;27.658;85.326;2023-09-18T03:08:33;26.00;99.90
69204;DHT22;56317;27.658;85.326;2023-09-18T03:11:00;26.00;99.90
69204;DHT22;56317;27.658;85.326;2023-09-18T03:13:28;26.00;99.90
69204;DHT22;56317;27.658;85.326;2023-09-18T03:15:55;26.00;99.90
69204;DHT22;56317;27.658;85.326;2023-09-18T03:18:23;26.00;99.90
69204;DHT22;56317;27.658;85.326;2023-09-18T03:20:50;26.00;99.90
69204;DHT22;56317;27.658;85.326;2023-09-18T03:23:17;26.00;99.90
69204;DHT22;56317;27.658;85.326;2023-09-18T03:25:44;26.10;99.90
69204;DHT22;56317;27.658;85.326;2023-09-18T03:28:11;26.20;99.90
69204;DHT22;56317;27.658;85.326;2023-09-18T03:30:39;26.30;99.90
69204;DHT22;56317;27.658;85.326;2023-09-18T03:33:06;26.50;99.90
69204;DHT22;56317;27.658;85.326;2023-09-18T03:35:48;26.60;99.90
69204;DHT22;56317;27.658;85.326;2023-09-18T03:38:16;27.00;99.90
69204;DHT22;56317;27.658;85.326;2023-09-18T03:40:43;27.30;99.90
69204;DHT22;56317;27.658;85.326;2023-09-18T03:43:11;27.50;99.90
69204;DHT22;56317;27.658;85.326;2023-09-18T03:45:41;27.70;99.90
69204;DHT22;56317;27.658;85.326;2023-09-18T03:48:09;27.90;99.90
69204;DHT22;56317;27.658;85.326;2023-09-18T03:50:36;28.00;99.90
69204;DHT22;56317;27.658;85.326;2023-09-18T03:53:03;28.30;99.90
69204;DHT22;56317;27.658;85.326;2023-09-18T03:55:30;28.70;99.90
69204;DHT22;56317;27.658;85.326;2023-09-18T03:57:57;29.10;99.90
69204;DHT22;56317;27.658;85.326;2023-09-18T04:00:25;29.60;99.90
69204;DHT22;56317;27.658;85.326;2023-09-18T04:02:52;30.00;99.90
69204;DHT22;56317;27.658;85.326;2023-09-18T04:05:19;30.20;99.90
69204;DHT22;56317;27.658;85.326;2023-09-18T04:07:46;30.40;99.90
69204;DHT22;56317;27.658;85.326;2023-09-18T04:10:26;30.70;99.90
69204;DHT22;56317;27.658;85.326;2023-09-18T04:12:54;30.90;99.90
69204;DHT22;56317;27.658;85.326;2023-09-18T04:15:22;31.20;99.90
69204;DHT22;56317;27.658;85.326;2023-09-18T04:17:49;31.60;99.90
69204;DHT22;56317;27.658;85.326;2023-09-18T04:20:16;31.90;99.90
69204;DHT22;56317;27.658;85.326;2023-09-18T04:22:46;32.20;99.90
69204;DHT22;56317;27.658;85.326;2023-09-18T04:25:18;32.40;99.90
69204;DHT22;56317;27.658;85.326;2023-09-18T04:27:46;32.40;99.90
69204;DHT22;56317;27.658;85.326;2023-09-18T04:30:16;32.40;99.90
69204;DHT22;56317;27.658;85.326;2023-09-18T04:32:47;32.70;99.20
69204;DHT22;56317;27.658;85.326;2023-09-18T04:35:14;33.20;99.80
69204;DHT22;56317;27.658;85.326;2023-09-18T04:37:41;33.50;96.70
69204;DHT22;56317;27.658;85.326;2023-09-18T04:40:09;33.50;96.70
69204;DHT22;56317;27.658;85.326;2023-09-18T04:42:37;33.60;96.90
69204;DHT22;56317;27.658;85.326;2023-09-18T04:45:05;33.90;97.10
69204;DHT22;56317;27.658;85.326;2023-09-18T04:47:32;34.30;95.10
69204;DHT22;56317;27.658;85.326;2023-09-18T04:50:00;34.60;96.00
69204;DHT22;56317;27.658;85.326;2023-09-18T04:52:27;34.70;95.40
69204;DHT22;56317;27.658;85.326;2023-09-18T04:54:55;34.70;94.00
69204;DHT22;56317;27.658;85.326;2023-09-18T04:57:23;34.80;94.30
69204;DHT22;56317;27.658;85.326;2023-09-18T04:59:51;34.90;91.80
69204;DHT22;56317;27.658;85.326;2023-09-18T05:02:18;34.90;91.30
69204;DHT22;56317;27.658;85.326;2023-09-18T05:04:45;34.90;91.60
69204;DHT22;56317;27.658;85.326;2023-09-18T05:07:12;35.10;92.00
69204;DHT22;56317;27.658;85.326;2023-09-18T05:09:40;35.70;91.80
69204;DHT22;56317;27.658;85.326;2023-09-18T05:12:09;36.20;91.50
69204;DHT22;56317;27.658;85.326;2023-09-18T05:14:40;36.40;90.10
69204;DHT22;56317;27.658;85.326;2023-09-18T05:17:15;36.50;87.60
69204;DHT22;56317;27.658;85.326;2023-09-18T05:19:43;36.30;88.70
69204;DHT22;56317;27.658;85.326;2023-09-18T05:22:11;36.50;87.10
69204;DHT22;56317;27.658;85.326;2023-09-18T05:24:39;36.60;84.70
69204;DHT22;56317;27.658;85.326;2023-09-18T05:27:06;36.50;87.30
69204;DHT22;56317;27.658;85.326;2023-09-18T05:29:34;36.40;88.30
69204;DHT22;56317;27.658;85.326;2023-09-18T05:32:04;36.80;87.60
69204;DHT22;56317;27.658;85.326;2023-09-18T05:34:32;37.60;84.20
69204;DHT22;56317;27.658;85.326;2023-09-18T05:36:59;38.50;82.70
69204;DHT22;56317;27.658;85.326;2023-09-18T05:39:26;39.40;79.20
69204;DHT22;56317;27.658;85.326;2023-09-18T05:41:57;40.10;79.10
69204;DHT22;56317;27.658;85.326;2023-09-18T05:44:24;40.80;77.10
69204;DHT22;56317;27.658;85.326;2023-09-18T05:46:53;41.70;75.30
69204;DHT22;56317;27.658;85.326;2023-09-18T05:49:21;42.50;74.90
69204;DHT22;56317;27.658;85.326;2023-09-18T05:51:48;42.70;72.40
69204;DHT22;56317;27.658;85.326;2023-09-18T05:54:15;43.30;72.70
69204;DHT22;56317;27.658;85.326;2023-09-18T05:56:43;43.90;68.90
69204;DHT22;56317;27.658;85.326;2023-09-18T05:59:10;44.60;67.70
69204;DHT22;56317;27.658;85.326;2023-09-18T06:01:40;44.70;66.20
69204;DHT22;56317;27.658;85.326;2023-09-18T06:04:08;45.20;68.70
69204;DHT22;56317;27.658;85.326;2023-09-18T06:06:43;45.20;66.40
69204;DHT22;56317;27.658;85.326;2023-09-18T06:09:13;45.50;66.70
69204;DHT22;56317;27.658;85.326;2023-09-18T06:11:40;46.50;65.10
69204;DHT22;56317;27.658;85.326;2023-09-18T06:14:11;47.40;63.00
69204;DHT22;56317;27.658;85.326;2023-09-18T06:16:39;46.90;61.10
69204;DHT22;56317;27.658;85.326;2023-09-18T06:19:08;47.00;61.50
69204;DHT22;56317;27.658;85.326;2023-09-18T06:21:35;47.80;61.00
69204;DHT22;56317;27.658;85.326;2023-09-18T06:24:03;48.10;60.00
69204;DHT22;56317;27.658;85.326;2023-09-18T06:26:30;48.40;58.90
69204;DHT22;56317;27.658;85.326;2023-09-18T06:28:57;48.60;56.50
69204;DHT22;56317;27.658;85.326;2023-09-18T06:31:24;48.60;57.50
69204;DHT22;56317;27.658;85.326;2023-09-18T06:33:52;48.80;57.20
69204;DHT22;56317;27.658;85.326;2023-09-18T06:36:19;49.30;55.60
69204;DHT22;56317;27.658;85.326;2023-09-18T06:38:47;49.40;55.40
69204;DHT22;56317;27.658;85.326;2023-09-18T06:41:14;49.40;54.90
69204;DHT22;56317;27.658;85.326;2023-09-18T06:43:41;49.70;52.10
69204;DHT22;56317;27.658;85.326;2023-09-18T06:46:08;50.10;54.00
69204;DHT22;56317;27.658;85.326;2023-09-18T06:48:35;50.50;53.00
69204;DHT22;56317;27.658;85.326;2023-09-18T06:51:03;50.30;52.20
69204;DHT22;56317;27.658;85.326;2023-09-18T06:53:30;49.60;51.30
69204;DHT22;56317;27.658;85.326;2023-09-18T06:55:57;49.60;53.20
69204;DHT22;56317;27.658;85.326;2023-09-18T06:58:24;50.40;52.90
69204;DHT22;56317;27.658;85.326;2023-09-18T07:00:51;50.50;52.20
69204;DHT22;56317;27.658;85.326;2023-09-18T07:03:19;50.80;50.70
69204;DHT22;56317;27.658;85.326;2023-09-18T07:05:47;51.30;51.50
69204;DHT22;56317;27.658;85.326;2023-09-18T07:08:14;51.30;50.40
69204;DHT22;56317;27.658;85.326;2023-09-18T07:10:46;51.40;50.30
69204;DHT22;56317;27.658;85.326;2023-09-18T07:13:13;51.60;50.60
69204;DHT22;56317;27.658;85.326;2023-09-18T07:15:41;51.50;50.40
69204;DHT22;56317;27.658;85.326;2023-09-18T07:18:11;51.60;49.60
69204;DHT22;56317;27.658;85.326;2023-09-18T07:20:47;48.60;49.90
69204;DHT22;56317;27.658;85.326;2023-09-18T07:23:14;45.70;50.80
69204;DHT22;56317;27.658;85.326;2023-09-18T07:25:41;43.10;52.70
69204;DHT22;56317;27.658;85.326;2023-09-18T07:28:10;43.00;54.10
69204;DHT22;56317;27.658;85.326;2023-09-18T07:30:44;42.00;57.00
69204;DHT22;56317;27.658;85.326;2023-09-18T07:33:12;42.80;57.30
69204;DHT22;56317;27.658;85.326;2023-09-18T07:35:47;44.80;54.90
69204;DHT22;56317;27.658;85.326;2023-09-18T07:38:18;46.40;55.00
69204;DHT22;56317;27.658;85.326;2023-09-18T07:40:48;46.80;52.80
69204;DHT22;56317;27.658;85.326;2023-09-18T07:43:15;47.40;52.50
69204;DHT22;56317;27.658;85.326;2023-09-18T07:45:42;46.00;52.30
69204;DHT22;56317;27.658;85.326;2023-09-18T07:48:09;43.40;53.60
69204;DHT22;56317;27.658;85.326;2023-09-18T07:50:36;41.10;56.20
69204;DHT22;56317;27.658;85.326;2023-09-18T07:53:04;39.30;57.20
69204;DHT22;56317;27.658;85.326;2023-09-18T07:55:31;38.10;58.60
69204;DHT22;56317;27.658;85.326;2023-09-18T07:57:58;37.50;60.70
69204;DHT22;56317;27.658;85.326;2023-09-18T08:00:25;37.20;60.40
69204;DHT22;56317;27.658;85.326;2023-09-18T08:02:54;37.70;60.50
69204;DHT22;56317;27.658;85.326;2023-09-18T08:05:27;40.50;60.80
69204;DHT22;56317;27.658;85.326;2023-09-18T08:07:56;43.40;57.30
69204;DHT22;56317;27.658;85.326;2023-09-18T08:10:25;46.10;55.60
69204;DHT22;56317;27.658;85.326;2023-09-18T08:12:53;47.20;55.10
69204;DHT22;56317;27.658;85.326;2023-09-18T08:15:20;48.80;52.60
69204;DHT22;56317;27.658;85.326;2023-09-18T08:17:48;49.70;52.20
69204;DHT22;56317;27.658;85.326;2023-09-18T08:20:16;50.20;53.10
69204;DHT22;56317;27.658;85.326;2023-09-18T08:22:44;50.50;50.90
69204;DHT22;56317;27.658;85.326;2023-09-18T08:25:12;51.40;50.30
69204;DHT22;56317;27.658;85.326;2023-09-18T08:27:40;51.20;51.00
69204;DHT22;56317;27.658;85.326;2023-09-18T08:30:13;50.70;51.40
69204;DHT22;56317;27.658;85.326;2023-09-18T08:32:42;50.40;51.60
69204;DHT22;56317;27.658;85.326;2023-09-18T08:35:10;50.10;52.00
69204;DHT22;56317;27.658;85.326;2023-09-18T08:37:37;50.10;51.60
69204;DHT22;56317;27.658;85.326;2023-09-18T08:40:05;49.20;51.90
69204;DHT22;56317;27.658;85.326;2023-09-18T08:42:46;48.80;53.20
69204;DHT22;56317;27.658;85.326;2023-09-18T08:45:38;47.10;52.80
69204;DHT22;56317;27.658;85.326;2023-09-18T08:48:07;43.40;56.40
69204;DHT22;56317;27.658;85.326;2023-09-18T08:50:36;41.10;58.00
69204;DHT22;56317;27.658;85.326;2023-09-18T08:53:04;38.30;61.80
69204;DHT22;56317;27.658;85.326;2023-09-18T08:55:31;36.30;64.80
69204;DHT22;56317;27.658;85.326;2023-09-18T08:57:59;35.10;68.00
69204;DHT22;56317;27.658;85.326;2023-09-18T09:00:27;34.90;70.80
69204;DHT22;56317;27.658;85.326;2023-09-18T09:02:55;39.30;67.30
69204;DHT22;56317;27.658;85.326;2023-09-18T09:05:23;43.50;60.80
69204;DHT22;56317;27.658;85.326;2023-09-18T09:07:50;46.60;57.90
69204;DHT22;56317;27.658;85.326;2023-09-18T09:10:18;48.10;55.50
69204;DHT22;56317;27.658;85.326;2023-09-18T09:12:59;49.30;54.20
69204;DHT22;56317;27.658;85.326;2023-09-18T09:15:31;49.60;54.50
69204;DHT22;56317;27.658;85.326;2023-09-18T09:18:04;47.30;54.30
69204;DHT22;56317;27.658;85.326;2023-09-18T09:20:32;45.10;56.10
69204;DHT22;56317;27.658;85.326;2023-09-18T09:23:03;46.20;56.70
69204;DHT22;56317;27.658;85.326;2023-09-18T09:25:32;48.40;55.20
69204;DHT22;56317;27.658;85.326;2023-09-18T09:28:02;49.40;53.60
69204;DHT22;56317;27.658;85.326;2023-09-18T09:30:33;50.00;53.20
69204;DHT22;56317;27.658;85.326;2023-09-18T09:33:04;50.80;52.50
69204;DHT22;56317;27.658;85.326;2023-09-18T09:35:37;51.40;51.70
69204;DHT22;56317;27.658;85.326;2023-09-18T09:38:12;51.80;51.70
69204;DHT22;56317;27.658;85.326;2023-09-18T09:40:43;52.40;51.20
69204;DHT22;56317;27.658;85.326;2023-09-18T09:43:12;52.70;50.80
69204;DHT22;56317;27.658;85.326;2023-09-18T09:45:41;52.70;49.90
69204;DHT22;56317;27.658;85.326;2023-09-18T09:48:08;53.10;49.20
69204;DHT22;56317;27.658;85.326;2023-09-18T09:50:45;53.10;49.20
69204;DHT22;56317;27.658;85.326;2023-09-18T09:53:13;53.30;49.20
69204;DHT22;56317;27.658;85.326;2023-09-18T09:55:41;51.90;49.00
69204;DHT22;56317;27.658;85.326;2023-09-18T09:58:09;52.40;48.80
69204;DHT22;56317;27.658;85.326;2023-09-18T10:00:46;51.60;49.00
69204;DHT22;56317;27.658;85.326;2023-09-18T10:03:20;51.20;49.70
69204;DHT22;56317;27.658;85.326;2023-09-18T10:05:52;49.50;50.00
69204;DHT22;56317;27.658;85.326;2023-09-18T10:08:25;46.20;52.50
69204;DHT22;56317;27.658;85.326;2023-09-18T10:10:55;44.30;54.90
69204;DHT22;56317;27.658;85.326;2023-09-18T10:16:17;45.20;55.10
69204;DHT22;56317;27.658;85.326;2023-09-18T10:24:29;42.10;56.00
69204;DHT22;56317;27.658;85.326;2023-09-18T10:27:01;39.20;59.60
69204;DHT22;56317;27.658;85.326;2023-09-18T10:29:31;36.40;62.80
69204;DHT22;56317;27.658;85.326;2023-09-18T10:31:59;35.30;65.30
69204;DHT22;56317;27.658;85.326;2023-09-18T10:34:28;34.70;67.10
69204;DHT22;56317;27.658;85.326;2023-09-18T10:36:57;35.60;66.70
69204;DHT22;56317;27.658;85.326;2023-09-18T10:39:25;36.40;65.20
69204;DHT22;56317;27.658;85.326;2023-09-18T10:41:54;36.50;64.70
69204;DHT22;56317;27.658;85.326;2023-09-18T10:44:26;36.50;65.00
69204;DHT22;56317;27.658;85.326;2023-09-18T10:46:55;36.50;64.70
69204;DHT22;56317;27.658;85.326;2023-09-18T10:49:22;35.60;65.40
69204;DHT22;56317;27.658;85.326;2023-09-18T10:51:54;33.80;67.90
69204;DHT22;56317;27.658;85.326;2023-09-18T10:54:25;32.30;71.10
69204;DHT22;56317;27.658;85.326;2023-09-18T10:56:53;31.20;72.90
69204;DHT22;56317;27.658;85.326;2023-09-18T10:59:22;30.30;75.50
69204;DHT22;56317;27.658;85.326;2023-09-18T11:01:50;29.60;77.40
69204;DHT22;56317;27.658;85.326;2023-09-18T11:04:19;29.20;79.10
69204;DHT22;56317;27.658;85.326;2023-09-18T11:09:27;28.60;80.70
69204;DHT22;56317;27.658;85.326;2023-09-18T11:20:16;27.20;86.00
69204;DHT22;56317;27.658;85.326;2023-09-18T11:25:35;26.80;88.10
69204;DHT22;56317;27.658;85.326;2023-09-18T11:28:05;26.50;89.40
69204;DHT22;56317;27.658;85.326;2023-09-18T11:30:35;26.30;90.50
69204;DHT22;56317;27.658;85.326;2023-09-18T11:33:06;26.10;91.00
69204;DHT22;56317;27.658;85.326;2023-09-18T11:35:35;26.00;91.30
69204;DHT22;56317;27.658;85.326;2023-09-18T11:38:05;25.80;91.60
69204;DHT22;56317;27.658;85.326;2023-09-18T11:40:36;25.70;92.10
69204;DHT22;56317;27.658;85.326;2023-09-18T11:43:27;25.60;93.00
69204;DHT22;56317;27.658;85.326;2023-09-18T11:45:58;25.50;93.60
69204;DHT22;56317;27.658;85.326;2023-09-18T11:48:27;25.40;94.10
69204;DHT22;56317;27.658;85.326;2023-09-18T11:50:59;25.30;94.60
69204;DHT22;56317;27.658;85.326;2023-09-18T11:53:32;25.20;95.20
69204;DHT22;56317;27.658;85.326;2023-09-18T11:56:02;25.10;95.90
69204;DHT22;56317;27.658;85.326;2023-09-18T11:58:29;25.10;96.70
69204;DHT22;56317;27.658;85.326;2023-09-18T12:00:56;25.00;97.70
69204;DHT22;56317;27.658;85.326;2023-09-18T12:03:30;24.90;98.60
69204;DHT22;56317;27.658;85.326;2023-09-18T12:05:59;24.90;98.90
69204;DHT22;56317;27.658;85.326;2023-09-18T12:08:29;24.80;99.30
69204;DHT22;56317;27.658;85.326;2023-09-18T12:10:59;24.80;99.20
69204;DHT22;56317;27.658;85.326;2023-09-18T12:13:27;24.70;99.90
69204;DHT22;56317;27.658;85.326;2023-09-18T12:16:02;24.70;99.90
69204;DHT22;56317;27.658;85.326;2023-09-18T12:18:33;24.70;99.90
69204;DHT22;56317;27.658;85.326;2023-09-18T12:21:06;24.70;99.90
69204;DHT22;56317;27.658;85.326;2023-09-18T12:23:40;24.60;99.90
69204;DHT22;56317;27.658;85.326;2023-09-18T12:26:12;24.50;99.90
69204;DHT22;56317;27.658;85.326;2023-09-18T12:28:43;24.50;99.90
69204;DHT22;56317;27.658;85.326;2023-09-18T12:31:12;24.50;99.90
69204;DHT22;56317;27.658;85.326;2023-09-18T12:33:41;24.40;99.90
69204;DHT22;56317;27.658;85.326;2023-09-18T12:36:10;24.40;99.90
69204;DHT22;56317;27.658;85.326;2023-09-18T12:38:41;24.40;99.90
69204;DHT22;56317;27.658;85.326;2023-09-18T12:41:11;24.40;99.90
69204;DHT22;56317;27.658;85.326;2023-09-18T12:43:41;24.30;99.90
69204;DHT22;56317;27.658;85.326;2023-09-18T12:46:09;24.40;99.90
69204;DHT22;56317;27.658;85.326;2023-09-18T12:48:40;24.40;99.90
69204;DHT22;56317;27.658;85.326;2023-09-18T12:51:18;24.30;99.90
69204;DHT22;56317;27.658;85.326;2023-09-18T12:54:02;24.30;99.90
69204;DHT22;56317;27.658;85.326;2023-09-18T12:56:32;24.40;99.90
69204;DHT22;56317;27.658;85.326;2023-09-18T12:59:01;24.40;99.90
69204;DHT22;56317;27.658;85.326;2023-09-18T13:01:30;24.40;99.90
69204;DHT22;56317;27.658;85.326;2023-09-18T13:03:57;24.40;99.90
69204;DHT22;56317;27.658;85.326;2023-09-18T13:06:36;24.40;99.90
69204;DHT22;56317;27.658;85.326;2023-09-18T13:09:21;24.40;99.90
69204;DHT22;56317;27.658;85.326;2023-09-18T13:11:53;24.30;99.90
69204;DHT22;56317;27.658;85.326;2023-09-18T13:14:20;24.30;99.90
69204;DHT22;56317;27.658;85.326;2023-09-18T13:16:47;24.30;99.90
69204;DHT22;56317;27.658;85.326;2023-09-18T13:19:15;24.30;99.90
69204;DHT22;56317;27.658;85.326;2023-09-18T13:21:49;24.20;99.90
69204;DHT22;56317;27.658;85.326;2023-09-18T13:24:31;24.20;99.90
69204;DHT22;56317;27.658;85.326;2023-09-18T13:26:59;24.20;99.90
69204;DHT22;56317;27.658;85.326;2023-09-18T13:29:27;24.20;99.90
69204;DHT22;56317;27.658;85.326;2023-09-18T13:31:54;24.20;99.90
69204;DHT22;56317;27.658;85.326;2023-09-18T13:34:22;24.10;99.90
69204;DHT22;56317;27.658;85.326;2023-09-18T13:36:49;23.80;99.90
69204;DHT22;56317;27.658;85.326;2023-09-18T13:39:16;23.60;99.90
69204;DHT22;56317;27.658;85.326;2023-09-18T13:41:44;23.30;99.90
69204;DHT22;56317;27.658;85.326;2023-09-18T13:44:12;23.00;99.90
69204;DHT22;56317;27.658;85.326;2023-09-18T13:46:39;22.80;99.90
69204;DHT22;56317;27.658;85.326;2023-09-18T13:49:10;22.60;99.90
69204;DHT22;56317;27.658;85.326;2023-09-18T13:51:37;22.50;99.90
69204;DHT22;56317;27.658;85.326;2023-09-18T13:54:04;22.50;99.90
69204;DHT22;56317;27.658;85.326;2023-09-18T13:56:33;22.40;99.90
69204;DHT22;56317;27.658;85.326;2023-09-18T13:59:01;22.40;99.90
69204;DHT22;56317;27.658;85.326;2023-09-18T14:01:28;22.40;99.90
69204;DHT22;56317;27.658;85.326;2023-09-18T14:03:55;22.40;99.90
69204;DHT22;56317;27.658;85.326;2023-09-18T14:06:23;22.50;99.90
69204;DHT22;56317;27.658;85.326;2023-09-18T14:08:50;22.50;99.90
69204;DHT22;56317;27.658;85.326;2023-09-18T14:11:18;22.50;99.90
69204;DHT22;56317;27.658;85.326;2023-09-18T14:13:45;22.70;99.90
69204;DHT22;56317;27.658;85.326;2023-09-18T14:16:14;22.80;99.90
69204;DHT22;56317;27.658;85.326;2023-09-18T14:18:41;22.90;99.90
69204;DHT22;56317;27.658;85.326;2023-09-18T14:21:09;23.00;99.90
69204;DHT22;56317;27.658;85.326;2023-09-18T14:23:36;23.10;99.90
69204;DHT22;56317;27.658;85.326;2023-09-18T14:26:03;23.20;99.90
69204;DHT22;56317;27.658;85.326;2023-09-18T14:28:30;23.20;99.90
69204;DHT22;56317;27.658;85.326;2023-09-18T14:30:59;23.30;99.90
69204;DHT22;56317;27.658;85.326;2023-09-18T14:33:26;23.30;99.90
69204;DHT22;56317;27.658;85.326;2023-09-18T14:35:53;23.30;99.90
69204;DHT22;56317;27.658;85.326;2023-09-18T14:38:20;23.30;99.90
69204;DHT22;56317;27.658;85.326;2023-09-18T14:40:47;23.20;99.90
69204;DHT22;56317;27.658;85.326;2023-09-18T14:43:14;23.20;99.90
69204;DHT22;56317;27.658;85.326;2023-09-18T14:45:41;23.20;99.90
69204;DHT22;56317;27.658;85.326;2023-09-18T14:48:08;23.20;99.90
69204;DHT22;56317;27.658;85.326;2023-09-18T14:50:36;23.20;99.90
69204;DHT22;56317;27.658;85.326;2023-09-18T14:53:03;23.20;99.90
69204;DHT22;56317;27.658;85.326;2023-09-18T14:55:33;23.20;99.90
69204;DHT22;56317;27.658;85.326;2023-09-18T14:58:01;23.10;99.90
69204;DHT22;56317;27.658;85.326;2023-09-18T15:00:28;23.10;99.90
69204;DHT22;56317;27.658;85.326;2023-09-18T15:02:55;23.10;99.90
69204;DHT22;56317;27.658;85.326;2023-09-18T15:05:23;23.10;99.90
69204;DHT22;56317;27.658;85.326;2023-09-18T15:07:50;23.00;99.90
69204;DHT22;56317;27.658;85.326;2023-09-18T15:10:18;23.00;99.90
69204;DHT22;56317;27.658;85.326;2023-09-18T15:12:45;23.00;99.90
69204;DHT22;56317;27.658;85.326;2023-09-18T15:15:12;23.00;99.90
69204;DHT22;56317;27.658;85.326;2023-09-18T15:17:39;22.90;99.90
69204;DHT22;56317;27.658;85.326;2023-09-18T15:20:07;23.00;99.90
69204;DHT22;56317;27.658;85.326;2023-09-18T15:22:34;23.00;99.90
69204;DHT22;56317;27.658;85.326;2023-09-18T15:25:01;23.00;99.90
69204;DHT22;56317;27.658;85.326;2023-09-18T15:27:28;22.90;99.90
69204;DHT22;56317;27.658;85.326;2023-09-18T15:29:56;23.00;99.90
69204;DHT22;56317;27.658;85.326;2023-09-18T15:32:24;23.00;99.90
69204;DHT22;56317;27.658;85.326;2023-09-18T15:34:51;23.00;99.90
69204;DHT22;56317;27.658;85.326;2023-09-18T15:37:19;23.00;99.90
69204;DHT22;56317;27.658;85.326;2023-09-18T15:39:48;23.00;99.90
69204;DHT22;56317;27.658;85.326;2023-09-18T15:42:17;23.10;99.90
69204;DHT22;56317;27.658;85.326;2023-09-18T15:44:44;23.10;99.90
69204;DHT22;56317;27.658;85.326;2023-09-18T15:47:11;23.10;99.90